Time;durP1;ratioP1;P1;durP2;ratioP2;P2;SDS_P1;SDS_P2;PMS_P1;PMS_P2;Temp;Humidity;BMP_temperature;BMP_pressure;BME280_temperature;BME280_humidity;BME280_pressure;Samples;Min_cycle;Max_cycle;Signal;HPM_P1;HPM_P2
2021/03/10 00:00:07;;;;;;;15.13;11.13;;;19.60;99.90;;;;;;5070657;28;20402;-40
2021/03/10 00:02:33;;;;;;;13.35;10.75;;;19.60;99.90;;;;;;5072300;28;20024;-40
2021/03/10 00:04:59;;;;;;;13.60;10.63;;;19.50;99.90;;;;;;5073149;28;20485;-40
2021/03/10 00:07:25;;;;;;;13.23;11.15;;;19.40;99.90;;;;;;5072880;28;20024;-39
2021/03/10 00:09:52;;;;;;;17.48;10.77;;;19.40;99.90;;;;;;5072993;28;20103;-40
2021/03/10 00:12:18;;;;;;;14.65;10.88;;;19.40;99.90;;;;;;5073174;28;20393;-40
2021/03/10 00:14:44;;;;;;;15.90;10.90;;;19.40;99.90;;;;;;5069874;28;20530;-44
2021/03/10 00:17:10;;;;;;;18.92;10.90;;;19.40;99.90;;;;;;5072903;28;20108;-40
2021/03/10 00:19:36;;;;;;;15.13;9.88;;;19.40;99.90;;;;;;5072289;28;20680;-39
2021/03/10 00:22:02;;;;;;;13.45;9.82;;;19.40;99.90;;;;;;5072151;28;20470;-39
2021/03/10 00:24:28;;;;;;;14.05;9.98;;;19.30;99.90;;;;;;5071989;28;20051;-40
2021/03/10 00:27:03;;;;;;;11.57;8.68;;;19.30;99.90;;;;;;5070118;28;20499;-39
2021/03/10 00:29:35;;;;;;;13.38;8.77;;;19.20;99.90;;;;;;5068792;28;20024;-40
2021/03/10 00:32:02;;;;;;;12.90;8.60;;;19.20;99.90;;;;;;5064248;28;20040;-41
2021/03/10 00:34:27;;;;;;;12.88;8.27;;;19.20;99.90;;;;;;5071776;28;20025;-40
2021/03/10 00:36:53;;;;;;;11.73;7.90;;;19.20;99.90;;;;;;5071767;28;20028;-40
2021/03/10 00:39:19;;;;;;;13.02;7.35;;;19.20;99.90;;;;;;5069649;28;20112;-39
2021/03/10 00:41:45;;;;;;;9.55;8.05;;;19.10;99.90;;;;;;5069052;28;20052;-39
2021/03/10 00:44:11;;;;;;;9.48;6.85;;;19.10;99.90;;;;;;5072525;28;20479;-39
2021/03/10 00:46:37;;;;;;;9.07;7.32;;;19.10;99.90;;;;;;5072722;28;20028;-39
2021/03/10 00:49:02;;;;;;;9.93;6.60;;;19.10;99.90;;;;;;5070643;28;20024;-40
2021/03/10 00:51:28;;;;;;;11.23;7.32;;;19.10;99.90;;;;;;5072742;28;20095;-40
2021/03/10 00:53:54;;;;;;;7.70;6.28;;;19.10;99.90;;;;;;5072300;28;20035;-39
2021/03/10 00:56:20;;;;;;;10.80;7.28;;;19.10;99.90;;;;;;5072186;28;20013;-40
2021/03/10 00:58:49;;;;;;;8.35;6.75;;;19.10;99.90;;;;;;5072152;28;20048;-40
2021/03/10 01:01:14;;;;;;;7.85;5.78;;;19.00;99.90;;;;;;5071418;28;20023;-40
2021/03/10 01:03:40;;;;;;;7.90;5.93;;;19.00;99.90;;;;;;5070323;28;20020;-40
2021/03/10 01:06:06;;;;;;;7.45;5.35;;;19.00;99.90;;;;;;5072489;28;20024;-36
2021/03/10 01:08:32;;;;;;;7.40;5.35;;;18.90;99.90;;;;;;5072417;28;20044;-37
2021/03/10 01:10:58;;;;;;;11.68;6.18;;;19.00;99.90;;;;;;5073225;28;20465;-36
2021/03/10 01:13:23;;;;;;;7.28;5.78;;;19.00;99.90;;;;;;5073068;28;20024;-36
2021/03/10 01:15:49;;;;;;;8.18;6.05;;;18.90;99.90;;;;;;5072944;28;20417;-36
2021/03/10 01:18:15;;;;;;;7.75;6.22;;;19.00;99.90;;;;;;5072947;28;20086;-37
2021/03/10 01:20:41;;;;;;;6.88;5.03;;;19.00;99.90;;;;;;5072940;28;20031;-36
2021/03/10 01:23:07;;;;;;;15.15;4.90;;;18.90;99.90;;;;;;5056415;28;20048;-36
2021/03/10 01:25:33;;;;;;;6.35;5.07;;;18.90;99.90;;;;;;5051638;28;20028;-37
2021/03/10 01:27:59;;;;;;;10.55;4.80;;;18.80;99.90;;;;;;5067242;28;20398;-36
2021/03/10 01:30:25;;;;;;;5.63;4.65;;;18.80;99.90;;;;;;5072886;28;20092;-37
2021/03/10 01:32:50;;;;;;;9.63;5.30;;;18.80;99.90;;;;;;5072847;28;20100;-37
2021/03/10 01:35:18;;;;;;;7.38;4.72;;;18.80;99.90;;;;;;5072828;28;20032;-36
2021/03/10 01:37:43;;;;;;;7.18;4.70;;;18.80;99.90;;;;;;5072753;28;20025;-37
2021/03/10 01:40:16;;;;;;;6.95;4.38;;;18.80;99.90;;;;;;5072981;28;20028;-37
2021/03/10 01:42:42;;;;;;;8.93;5.43;;;18.80;99.90;;;;;;5072795;28;20046;-37
2021/03/10 01:45:09;;;;;;;9.27;4.50;;;18.80;99.90;;;;;;5073044;28;20021;-36
2021/03/10 01:47:42;;;;;;;8.68;4.88;;;18.80;99.90;;;;;;5071336;28;20028;-37
2021/03/10 01:50:09;;;;;;;8.77;5.25;;;18.80;99.90;;;;;;5072820;28;20085;-36
2021/03/10 01:52:35;;;;;;;7.47;4.97;;;18.80;99.90;;;;;;5072722;28;20024;-37
2021/03/10 01:55:01;;;;;;;8.70;5.18;;;18.80;99.90;;;;;;5072881;28;20025;-36
2021/03/10 01:57:27;;;;;;;8.25;4.95;;;18.80;99.90;;;;;;5072779;28;20063;-36
2021/03/10 01:59:53;;;;;;;7.20;4.57;;;18.80;99.90;;;;;;5072824;28;20025;-36
2021/03/10 02:02:19;;;;;;;7.22;4.68;;;18.80;99.90;;;;;;5072199;28;20343;-36
2021/03/10 02:04:45;;;;;;;6.30;4.20;;;18.70;99.90;;;;;;5071455;28;20035;-37
2021/03/10 02:07:26;;;;;;;15.30;5.03;;;18.70;99.90;;;;;;5066006;28;20077;-36
2021/03/10 02:10:11;;;;;;;6.38;4.63;;;18.70;99.90;;;;;;5065270;28;20023;-36
2021/03/10 02:13:01;;;;;;;6.97;4.35;;;18.70;99.90;;;;;;5063486;28;20020;-37
2021/03/10 02:15:55;;;;;;;5.47;4.38;;;18.70;99.90;;;;;;5076735;28;20068;-37
2021/03/10 02:18:30;;;;;;;5.18;4.07;;;18.70;99.90;;;;;;5076306;28;20024;-37
2021/03/10 02:21:00;;;;;;;6.30;4.68;;;18.70;99.90;;;;;;5076386;28;20028;-37
2021/03/10 02:23:56;;;;;;;8.70;4.20;;;18.70;99.90;;;;;;5075807;28;20029;-36
2021/03/10 02:26:32;;;;;;;5.03;4.05;;;18.70;99.90;;;;;;5075684;28;20431;-37
2021/03/10 02:29:06;;;;;;;5.97;3.97;;;18.70;99.90;;;;;;5076169;28;20052;-37
2021/03/10 02:31:39;;;;;;;4.18;3.35;;;18.70;99.90;;;;;;5074706;28;20025;-36
2021/03/10 02:34:06;;;;;;;6.50;4.53;;;18.70;99.90;;;;;;5076415;28;20025;-37
2021/03/10 02:36:33;;;;;;;4.30;3.57;;;18.70;99.90;;;;;;5074124;28;20029;-36
2021/03/10 02:39:02;;;;;;;5.68;3.95;;;18.70;99.90;;;;;;5076070;28;20016;-37
2021/03/10 02:41:33;;;;;;;5.88;3.88;;;18.70;99.90;;;;;;5075825;28;20032;-36
2021/03/10 02:44:00;;;;;;;8.23;3.92;;;18.70;99.90;;;;;;5076012;28;20048;-36
2021/03/10 02:46:28;;;;;;;5.50;3.47;;;18.60;99.90;;;;;;5075566;28;20021;-36
2021/03/10 02:48:54;;;;;;;5.53;3.50;;;18.60;99.90;;;;;;5076295;28;20028;-37
2021/03/10 02:51:22;;;;;;;6.63;3.72;;;18.60;99.90;;;;;;5076198;28;20028;-36
2021/03/10 02:53:49;;;;;;;10.40;3.58;;;18.60;99.90;;;;;;5075694;28;20032;-37
2021/03/10 02:56:15;;;;;;;;;;;18.60;99.90;;;;;;5076399;28;20421;-36
2021/03/10 02:58:44;;;;;;;4.72;3.33;;;18.70;99.90;;;;;;5075948;28;19908;-36
2021/03/10 03:01:11;;;;;;;6.72;4.00;;;18.60;99.90;;;;;;5073791;28;20036;-36
2021/03/10 03:03:37;;;;;;;6.90;3.70;;;18.60;99.90;;;;;;5075598;28;20028;-36
2021/03/10 03:06:03;;;;;;;5.50;3.45;;;18.60;99.90;;;;;;5075358;28;20269;-37
2021/03/10 03:08:30;;;;;;;8.02;4.20;;;18.60;99.90;;;;;;5075277;28;20494;-36
2021/03/10 03:10:56;;;;;;;5.45;3.25;;;18.60;99.90;;;;;;5075357;28;20379;-37
2021/03/10 03:13:22;;;;;;;7.43;3.53;;;18.60;99.90;;;;;;5075205;28;20021;-37
2021/03/10 03:15:54;;;;;;;6.95;3.55;;;18.60;99.90;;;;;;5075296;28;20028;-36
2021/03/10 03:18:24;;;;;;;8.30;3.80;;;18.60;99.90;;;;;;5074931;28;20025;-36
2021/03/10 03:20:51;;;;;;;6.82;3.15;;;18.60;99.90;;;;;;5074895;28;20375;-36
2021/03/10 03:23:20;;;;;;;8.47;4.03;;;18.60;99.90;;;;;;5075102;28;20157;-36
2021/03/10 03:25:49;;;;;;;5.22;4.03;;;18.50;99.90;;;;;;5075152;28;20098;-36
2021/03/10 03:28:19;;;;;;;7.97;3.28;;;18.50;99.90;;;;;;5073778;28;20046;-36
2021/03/10 03:30:47;;;;;;;7.35;4.03;;;18.50;99.90;;;;;;5074066;28;20017;-36
2021/03/10 03:33:23;;;;;;;4.88;3.97;;;18.40;99.90;;;;;;5073505;28;20513;-36
2021/03/10 03:35:54;;;;;;;6.00;3.90;;;18.40;99.90;;;;;;5073843;28;20451;-37
2021/03/10 03:38:22;;;;;;;7.70;3.97;;;18.40;99.90;;;;;;5073507;28;20032;-36
2021/03/10 03:40:51;;;;;;;9.68;4.85;;;18.40;99.90;;;;;;5073488;28;20032;-36
2021/03/10 03:43:17;;;;;;;8.48;4.50;;;18.40;99.90;;;;;;5073205;28;20378;-36
2021/03/10 03:45:45;;;;;;;6.20;4.82;;;18.40;99.90;;;;;;5073549;28;20027;-36
2021/03/10 03:48:11;;;;;;;6.28;4.57;;;18.40;99.90;;;;;;5074160;28;20017;-36
2021/03/10 03:50:39;;;;;;;6.70;4.88;;;18.40;99.90;;;;;;5074992;28;20146;-36
2021/03/10 03:53:05;;;;;;;6.20;4.70;;;18.40;99.90;;;;;;5074238;28;20107;-36
2021/03/10 03:55:31;;;;;;;7.97;6.57;;;18.40;99.90;;;;;;5074714;28;20543;-36
2021/03/10 03:57:57;;;;;;;11.55;4.90;;;18.40;99.90;;;;;;5074530;28;20417;-36
2021/03/10 04:00:26;;;;;;;7.63;4.95;;;18.30;99.90;;;;;;5073962;28;20028;-37
2021/03/10 04:02:52;;;;;;;7.20;4.60;;;18.30;99.90;;;;;;5073844;28;20107;-36
2021/03/10 04:05:19;;;;;;;7.85;5.60;;;18.20;99.90;;;;;;5074405;28;20089;-37
2021/03/10 04:07:50;;;;;;;8.63;5.60;;;18.20;99.90;;;;;;5074083;28;20064;-36
2021/03/10 04:10:17;;;;;;;7.03;5.53;;;18.10;99.90;;;;;;5074379;28;20032;-36
2021/03/10 04:12:43;;;;;;;8.38;5.38;;;18.20;99.90;;;;;;5073797;28;20854;-36
2021/03/10 04:15:11;;;;;;;6.28;4.95;;;18.20;99.90;;;;;;5074292;28;20028;-36
2021/03/10 04:17:37;;;;;;;7.50;4.90;;;18.20;99.90;;;;;;5074052;28;20028;-38
2021/03/10 04:20:13;;;;;;;8.95;5.60;;;18.10;99.90;;;;;;5073577;28;20020;-39
2021/03/10 04:22:39;;;;;;;8.60;5.82;;;18.10;99.90;;;;;;5073811;28;20497;-39
2021/03/10 04:25:09;;;;;;;9.40;5.57;;;18.10;99.90;;;;;;5071614;28;20033;-38
2021/03/10 04:27:35;;;;;;;6.15;4.70;;;18.10;99.90;;;;;;5073565;28;20051;-39
2021/03/10 04:30:01;;;;;;;8.48;4.80;;;18.10;99.90;;;;;;5073947;28;20107;-39
2021/03/10 04:32:27;;;;;;;5.55;4.53;;;18.00;99.90;;;;;;5072891;28;20028;-38
2021/03/10 04:34:52;;;;;;;8.65;4.85;;;18.10;99.90;;;;;;5073762;28;20466;-38
2021/03/10 04:37:18;;;;;;;8.18;5.45;;;18.00;99.90;;;;;;5073503;28;20107;-38
2021/03/10 04:39:44;;;;;;;8.18;4.93;;;18.00;99.90;;;;;;5073542;28;20082;-39
2021/03/10 04:42:10;;;;;;;6.95;4.72;;;18.00;99.90;;;;;;5073653;28;20028;-39
2021/03/10 04:44:36;;;;;;;13.95;6.13;;;18.00;99.90;;;;;;5073397;28;20052;-36
2021/03/10 04:47:03;;;;;;;5.72;4.82;;;18.00;99.90;;;;;;5073715;28;20042;-36
2021/03/10 04:49:28;;;;;;;6.15;4.43;;;18.00;99.90;;;;;;5073370;28;20082;-36
2021/03/10 04:51:54;;;;;;;7.85;4.38;;;17.90;99.90;;;;;;5073728;28;20709;-36
2021/03/10 04:54:20;;;;;;;8.65;4.80;;;17.90;99.90;;;;;;5073169;28;20033;-36
2021/03/10 04:56:46;;;;;;;7.20;4.57;;;17.90;99.90;;;;;;5073566;28;20169;-36
2021/03/10 04:59:12;;;;;;;9.32;5.07;;;17.90;99.90;;;;;;5073408;28;20039;-36
2021/03/10 05:01:37;;;;;;;4.88;4.25;;;18.00;99.90;;;;;;5073186;28;20035;-36
2021/03/10 05:04:04;;;;;;;9.25;4.78;;;18.00;99.90;;;;;;5073426;28;20025;-37
2021/03/10 05:06:30;;;;;;;7.95;4.25;;;18.00;99.90;;;;;;5073167;28;20436;-37
2021/03/10 05:08:56;;;;;;;7.38;4.38;;;18.00;99.90;;;;;;5073230;28;20024;-36
2021/03/10 05:11:22;;;;;;;5.18;3.92;;;18.00;99.90;;;;;;5073003;28;20036;-37
2021/03/10 05:13:48;;;;;;;8.93;5.05;;;18.00;99.90;;;;;;5072543;28;20024;-37
2021/03/10 05:16:15;;;;;;;7.32;4.07;;;18.00;99.90;;;;;;5072302;28;20024;-36
2021/03/10 05:18:41;;;;;;;6.85;3.75;;;18.00;99.90;;;;;;5073117;28;20024;-36
2021/03/10 05:21:07;;;;;;;7.93;3.92;;;18.00;99.90;;;;;;5072711;28;20444;-36
2021/03/10 05:23:32;;;;;;;4.10;3.70;;;18.00;99.90;;;;;;5072897;28;20030;-36
2021/03/10 05:25:58;;;;;;;6.22;3.75;;;18.00;99.90;;;;;;5072212;28;20111;-36
2021/03/10 05:28:25;;;;;;;5.32;3.78;;;18.00;99.90;;;;;;5072522;28;20045;-39
2021/03/10 05:30:50;;;;;;;4.80;3.10;;;18.00;99.90;;;;;;5072158;28;20024;-42
2021/03/10 05:33:17;;;;;;;6.28;3.70;;;18.00;99.90;;;;;;5070512;28;20098;-41
2021/03/10 05:35:43;;;;;;;6.30;3.20;;;17.90;99.90;;;;;;5071838;28;20466;-42
2021/03/10 05:38:08;;;;;;;5.90;3.40;;;17.90;99.90;;;;;;5072122;28;20086;-41
2021/03/10 05:40:35;;;;;;;4.82;3.45;;;17.90;99.90;;;;;;5072315;28;20090;-42
2021/03/10 05:43:01;;;;;;;8.23;4.40;;;17.90;99.90;;;;;;5073255;28;20123;-42
2021/03/10 05:45:27;;;;;;;5.90;3.88;;;17.90;99.90;;;;;;5076570;28;20798;-42
2021/03/10 05:47:53;;;;;;;6.88;3.60;;;17.80;99.90;;;;;;5076391;28;20444;-42
2021/03/10 05:50:19;;;;;;;7.03;3.42;;;17.80;99.90;;;;;;5076330;28;20044;-42
2021/03/10 05:52:48;;;;;;;5.97;4.30;;;17.80;99.90;;;;;;5076142;28;20028;-43
2021/03/10 05:55:20;;;;;;;5.38;3.90;;;17.70;99.90;;;;;;5076009;28;20028;-42
2021/03/10 05:57:46;;;;;;;8.82;3.42;;;17.70;99.90;;;;;;5076148;28;20439;-42
2021/03/10 06:00:14;;;;;;;6.85;4.07;;;17.70;99.90;;;;;;5076187;28;20055;-41
2021/03/10 06:02:40;;;;;;;5.57;3.53;;;17.70;99.90;;;;;;5076870;28;20429;-41
2021/03/10 06:05:18;;;;;;;5.45;3.50;;;17.80;99.90;;;;;;5074905;28;20047;-41
2021/03/10 06:07:44;;;;;;;8.38;4.07;;;17.70;99.90;;;;;;5076593;28;20142;-41
2021/03/10 06:10:10;;;;;;;7.45;3.92;;;17.80;99.90;;;;;;5075782;28;20111;-39
2021/03/10 06:12:44;;;;;;;8.02;3.92;;;17.70;99.90;;;;;;5073143;28;20031;-41
2021/03/10 06:15:12;;;;;;;6.60;4.95;;;17.70;99.90;;;;;;5076076;28;20042;-39
2021/03/10 06:17:47;;;;;;;6.85;3.92;;;17.70;99.90;;;;;;5076222;28;20470;-38
2021/03/10 06:20:23;;;;;;;9.60;4.13;;;17.60;99.90;;;;;;5074829;28;20047;-41
2021/03/10 06:22:49;;;;;;;11.45;4.32;;;17.70;99.90;;;;;;5075902;28;20021;-41
2021/03/10 06:25:15;;;;;;;6.53;4.00;;;17.70;99.90;;;;;;5075639;28;20547;-41
2021/03/10 06:27:58;;;;;;;5.63;3.53;;;17.70;99.90;;;;;;5075491;28;20052;-41
2021/03/10 06:30:41;;;;;;;6.97;3.85;;;17.60;99.90;;;;;;5075817;28;20028;-41
2021/03/10 06:33:08;;;;;;;8.32;4.05;;;17.60;99.90;;;;;;5075380;28;20021;-38
2021/03/10 06:35:36;;;;;;;7.18;4.72;;;17.70;99.90;;;;;;5074842;28;20348;-42
2021/03/10 06:38:13;;;;;;;5.60;3.80;;;17.70;99.90;;;;;;5062411;28;20495;-41
2021/03/10 06:40:57;;;;;;;7.95;4.20;;;17.60;99.90;;;;;;5072632;28;20339;-41
2021/03/10 06:43:42;;;;;;;7.15;4.95;;;17.60;99.90;;;;;;5074540;28;20032;-41
2021/03/10 06:46:19;;;;;;;7.57;3.85;;;17.60;99.90;;;;;;5075277;28;20029;-41
2021/03/10 06:49:05;;;;;;;7.43;3.90;;;17.50;99.90;;;;;;5075860;28;20063;-41
2021/03/10 06:51:31;;;;;;;7.70;4.07;;;17.50;99.90;;;;;;5055942;28;20043;-39
2021/03/10 06:53:58;;;;;;;10.77;3.47;;;17.50;99.90;;;;;;5063240;28;20039;-38
2021/03/10 06:56:29;;;;;;;6.57;3.70;;;17.50;99.90;;;;;;5074588;28;20021;-39
2021/03/10 06:58:55;;;;;;;8.40;3.67;;;17.50;99.90;;;;;;5074707;28;20024;-38
2021/03/10 07:01:22;;;;;;;5.57;3.28;;;17.50;99.90;;;;;;5075193;28;20417;-38
2021/03/10 07:03:50;;;;;;;7.40;3.27;;;17.50;99.90;;;;;;5070226;28;20041;-39
2021/03/10 07:06:17;;;;;;;7.43;3.97;;;17.60;99.90;;;;;;5062463;28;20024;-39
2021/03/10 07:08:45;;;;;;;6.15;3.58;;;17.60;99.90;;;;;;5071368;28;20074;-39
2021/03/10 07:11:13;;;;;;;7.78;3.88;;;17.50;99.90;;;;;;5074815;28;20021;-39
2021/03/10 07:13:39;;;;;;;8.23;3.80;;;17.60;99.90;;;;;;5075121;28;20035;-39
2021/03/10 07:16:06;;;;;;;10.27;6.15;;;17.60;99.90;;;;;;5073437;28;20025;-39
2021/03/10 07:18:33;;;;;;;101.15;73.63;;;17.50;99.90;;;;;;5074093;28;20434;-37
2021/03/10 07:21:00;;;;;;;60.50;49.43;;;17.60;99.90;;;;;;5065461;28;20111;-36
2021/03/10 07:23:28;;;;;;;82.55;62.35;;;17.60;99.90;;;;;;5074335;28;20752;-37
2021/03/10 07:25:55;;;;;;;76.47;58.72;;;17.60;99.90;;;;;;5071170;28;20415;-39
2021/03/10 07:28:28;;;;;;;72.47;57.47;;;17.60;99.90;;;;;;5069006;28;20087;-37
2021/03/10 07:30:53;;;;;;;66.50;48.45;;;17.50;99.90;;;;;;5073824;28;20020;-38
2021/03/10 07:33:21;;;;;;;65.00;48.20;;;17.50;99.90;;;;;;5074626;28;20473;-39
2021/03/10 07:35:51;;;;;;;58.53;43.22;;;17.50;99.90;;;;;;5074980;28;20063;-36
2021/03/10 07:38:19;;;;;;;54.72;40.33;;;17.40;99.90;;;;;;5074771;28;20059;-37
2021/03/10 07:41:15;;;;;;;51.13;40.53;;;17.40;99.90;;;;;;5074913;28;20071;-38
2021/03/10 07:43:46;;;;;;;51.92;39.08;;;17.40;99.90;;;;;;4992641;28;20030;-39
2021/03/10 07:46:34;;;;;;;48.50;35.20;;;17.50;99.90;;;;;;4993138;28;20812;-39
2021/03/10 07:49:03;;;;;;;37.63;30.60;;;17.50;99.90;;;;;;4993339;28;20034;-37
2021/03/10 07:51:36;;;;;;;39.85;30.10;;;17.50;99.90;;;;;;4975862;28;20073;-36
2021/03/10 07:54:14;;;;;;;36.92;28.30;;;17.50;99.90;;;;;;4989241;28;20477;-37
2021/03/10 07:56:40;;;;;;;32.58;26.15;;;17.50;99.90;;;;;;4992762;28;20440;-39
2021/03/10 07:59:14;;;;;;;42.15;26.77;;;17.60;99.90;;;;;;4976062;28;20026;-37
2021/03/10 08:01:41;;;;;;;34.88;26.20;;;17.70;99.90;;;;;;4991662;28;20055;-40
2021/03/10 08:04:18;;;;;;;35.25;26.77;;;17.70;99.90;;;;;;4991952;28;20539;-42
2021/03/10 08:06:54;;;;;;;42.30;29.02;;;17.70;99.90;;;;;;4990876;28;20042;-41
2021/03/10 08:09:23;;;;;;;39.70;30.33;;;17.80;99.90;;;;;;4991973;28;20368;-42
2021/03/10 08:12:10;;;;;;;37.50;28.85;;;17.80;99.90;;;;;;4992553;28;20500;-41
2021/03/10 08:14:37;;;;;;;40.55;30.50;;;17.90;99.90;;;;;;4991952;28;20042;-41
2021/03/10 08:17:03;;;;;;;38.40;29.95;;;18.00;99.90;;;;;;4992605;28;20038;-42
2021/03/10 08:19:29;;;;;;;42.58;29.13;;;18.00;99.90;;;;;;4998843;28;20039;-42
2021/03/10 08:21:56;;;;;;;255.13;201.90;;;18.00;99.90;;;;;;5072375;28;20386;-42
2021/03/10 08:24:23;;;;;;;62.42;48.22;;;18.10;99.90;;;;;;5073615;28;20153;-40
2021/03/10 08:26:58;;;;;;;82.05;59.03;;;18.10;99.90;;;;;;5072640;28;20053;-40
2021/03/10 08:29:25;;;;;;;67.65;49.60;;;18.10;99.90;;;;;;5069437;28;20467;-40
2021/03/10 08:31:56;;;;;;;63.28;46.97;;;18.20;99.90;;;;;;5065004;28;20017;-40
2021/03/10 08:34:33;;;;;;;58.22;44.70;;;18.20;99.90;;;;;;5073580;28;20071;-40
2021/03/10 08:37:00;;;;;;;59.33;45.25;;;18.20;99.90;;;;;;5071952;28;20374;-40
2021/03/10 08:39:26;;;;;;;55.88;40.70;;;18.20;99.90;;;;;;5073370;28;20043;-41
2021/03/10 08:41:54;;;;;;;59.67;40.03;;;18.20;99.90;;;;;;5073342;28;20074;-42
